sensor_id;sensor_type;location;lat;lon;timestamp;P1;durP1;ratioP1;P2;durP2;ratioP2
18568;SDS011;14780;48.316;-1.050;2023-04-29T00:01:53;2.00;;;1.25;;
18568;SDS011;14780;48.316;-1.050;2023-04-29T00:04:41;1.90;;;1.00;;
18568;SDS011;14780;48.316;-1.050;2023-04-29T00:07:26;1.25;;;1.15;;
18568;SDS011;14780;48.316;-1.050;2023-04-29T00:10:10;0.80;;;0.80;;
18568;SDS011;14780;48.316;-1.050;2023-04-29T00:12:57;1.20;;;1.10;;
18568;SDS011;14780;48.316;-1.050;2023-04-29T00:15:42;1.00;;;0.95;;
18568;SDS011;14780;48.316;-1.050;2023-04-29T00:18:27;1.55;;;1.35;;
18568;SDS011;14780;48.316;-1.050;2023-04-29T00:21:11;1.15;;;1.05;;
18568;SDS011;14780;48.316;-1.050;2023-04-29T00:23:56;4.68;;;1.15;;
18568;SDS011;14780;48.316;-1.050;2023-04-29T00:26:41;0.95;;;0.95;;
18568;SDS011;14780;48.316;-1.050;2023-04-29T00:29:26;1.83;;;1.17;;
18568;SDS011;14780;48.316;-1.050;2023-04-29T00:32:10;1.00;;;1.00;;
18568;SDS011;14780;48.316;-1.050;2023-04-29T00:34:55;0.93;;;0.93;;
18568;SDS011;14780;48.316;-1.050;2023-04-29T00:37:40;0.70;;;0.70;;
18568;SDS011;14780;48.316;-1.050;2023-04-29T00:40:26;0.98;;;0.88;;
18568;SDS011;14780;48.316;-1.050;2023-04-29T00:43:11;0.90;;;0.90;;
18568;SDS011;14780;48.316;-1.050;2023-04-29T00:45:56;0.90;;;0.90;;
18568;SDS011;14780;48.316;-1.050;2023-04-29T00:48:41;1.15;;;0.93;;
18568;SDS011;14780;48.316;-1.050;2023-04-29T00:51:26;1.38;;;0.90;;
18568;SDS011;14780;48.316;-1.050;2023-04-29T00:54:11;1.75;;;0.90;;
18568;SDS011;14780;48.316;-1.050;2023-04-29T00:56:56;1.00;;;0.80;;
18568;SDS011;14780;48.316;-1.050;2023-04-29T00:59:42;0.80;;;0.80;;
18568;SDS011;14780;48.316;-1.050;2023-04-29T01:02:28;0.73;;;0.70;;
18568;SDS011;14780;48.316;-1.050;2023-04-29T01:05:13;0.90;;;0.90;;
18568;SDS011;14780;48.316;-1.050;2023-04-29T01:11:03;0.73;;;0.73;;
18568;SDS011;14780;48.316;-1.050;2023-04-29T01:13:50;0.82;;;0.80;;
18568;SDS011;14780;48.316;-1.050;2023-04-29T01:16:51;0.93;;;0.88;;
18568;SDS011;14780;48.316;-1.050;2023-04-29T01:19:52;1.38;;;1.27;;
18568;SDS011;14780;48.316;-1.050;2023-04-29T01:22:39;0.88;;;0.88;;
18568;SDS011;14780;48.316;-1.050;2023-04-29T01:25:24;0.85;;;0.85;;
18568;SDS011;14780;48.316;-1.050;2023-04-29T01:31:47;0.75;;;0.75;;
18568;SDS011;14780;48.316;-1.050;2023-04-29T01:37:56;0.82;;;0.70;;
18568;SDS011;14780;48.316;-1.050;2023-04-29T01:41:09;0.88;;;0.70;;
18568;SDS011;14780;48.316;-1.050;2023-04-29T01:44:07;0.60;;;0.60;;
18568;SDS011;14780;48.316;-1.050;2023-04-29T01:47:01;0.90;;;0.90;;
18568;SDS011;14780;48.316;-1.050;2023-04-29T01:49:46;0.70;;;0.60;;
18568;SDS011;14780;48.316;-1.050;2023-04-29T01:52:32;0.80;;;0.80;;
18568;SDS011;14780;48.316;-1.050;2023-04-29T01:55:17;0.85;;;0.82;;
18568;SDS011;14780;48.316;-1.050;2023-04-29T01:58:02;0.82;;;0.82;;
18568;SDS011;14780;48.316;-1.050;2023-04-29T02:00:47;0.90;;;0.90;;
18568;SDS011;14780;48.316;-1.050;2023-04-29T02:03:32;0.68;;;0.68;;
18568;SDS011;14780;48.316;-1.050;2023-04-29T02:06:18;0.75;;;0.75;;
18568;SDS011;14780;48.316;-1.050;2023-04-29T02:09:03;1.02;;;0.98;;
18568;SDS011;14780;48.316;-1.050;2023-04-29T02:11:48;0.60;;;0.60;;
18568;SDS011;14780;48.316;-1.050;2023-04-29T02:14:32;0.80;;;0.80;;
18568;SDS011;14780;48.316;-1.050;2023-04-29T02:17:17;0.70;;;0.70;;
18568;SDS011;14780;48.316;-1.050;2023-04-29T02:20:02;0.68;;;0.68;;
18568;SDS011;14780;48.316;-1.050;2023-04-29T02:22:47;1.00;;;0.80;;
18568;SDS011;14780;48.316;-1.050;2023-04-29T02:25:31;1.00;;;0.90;;
18568;SDS011;14780;48.316;-1.050;2023-04-29T02:28:16;0.50;;;0.50;;
18568;SDS011;14780;48.316;-1.050;2023-04-29T02:31:01;1.00;;;0.73;;
18568;SDS011;14780;48.316;-1.050;2023-04-29T02:33:45;0.55;;;0.55;;
18568;SDS011;14780;48.316;-1.050;2023-04-29T02:36:30;0.70;;;0.70;;
18568;SDS011;14780;48.316;-1.050;2023-04-29T02:39:15;0.82;;;0.82;;
18568;SDS011;14780;48.316;-1.050;2023-04-29T02:42:00;0.70;;;0.70;;
18568;SDS011;14780;48.316;-1.050;2023-04-29T02:44:45;0.55;;;0.55;;
18568;SDS011;14780;48.316;-1.050;2023-04-29T02:47:29;0.80;;;0.80;;
18568;SDS011;14780;48.316;-1.050;2023-04-29T02:50:14;0.85;;;0.85;;
18568;SDS011;14780;48.316;-1.050;2023-04-29T02:52:59;0.60;;;0.60;;
18568;SDS011;14780;48.316;-1.050;2023-04-29T02:55:43;1.20;;;0.70;;
18568;SDS011;14780;48.316;-1.050;2023-04-29T02:58:28;0.60;;;0.60;;
18568;SDS011;14780;48.316;-1.050;2023-04-29T03:01:12;0.70;;;0.70;;
18568;SDS011;14780;48.316;-1.050;2023-04-29T03:03:57;0.80;;;0.80;;
18568;SDS011;14780;48.316;-1.050;2023-04-29T03:06:43;0.63;;;0.63;;
18568;SDS011;14780;48.316;-1.050;2023-04-29T03:09:27;0.80;;;0.80;;
18568;SDS011;14780;48.316;-1.050;2023-04-29T03:12:13;0.90;;;0.90;;
18568;SDS011;14780;48.316;-1.050;2023-04-29T03:14:59;0.68;;;0.68;;
18568;SDS011;14780;48.316;-1.050;2023-04-29T03:17:43;0.73;;;0.73;;
18568;SDS011;14780;48.316;-1.050;2023-04-29T03:20:28;0.60;;;0.60;;
18568;SDS011;14780;48.316;-1.050;2023-04-29T03:23:15;0.73;;;0.73;;
18568;SDS011;14780;48.316;-1.050;2023-04-29T03:25:59;0.85;;;0.85;;
18568;SDS011;14780;48.316;-1.050;2023-04-29T03:28:44;0.60;;;0.60;;
18568;SDS011;14780;48.316;-1.050;2023-04-29T03:31:29;0.90;;;0.90;;
18568;SDS011;14780;48.316;-1.050;2023-04-29T03:34:13;0.70;;;0.70;;
18568;SDS011;14780;48.316;-1.050;2023-04-29T03:36:58;0.80;;;0.80;;
18568;SDS011;14780;48.316;-1.050;2023-04-29T03:39:43;0.77;;;0.77;;
18568;SDS011;14780;48.316;-1.050;2023-04-29T03:42:28;0.63;;;0.63;;
18568;SDS011;14780;48.316;-1.050;2023-04-29T03:45:12;0.95;;;0.88;;
18568;SDS011;14780;48.316;-1.050;2023-04-29T03:47:57;0.60;;;0.60;;
18568;SDS011;14780;48.316;-1.050;2023-04-29T03:50:41;0.93;;;0.88;;
18568;SDS011;14780;48.316;-1.050;2023-04-29T03:53:26;0.80;;;0.80;;
18568;SDS011;14780;48.316;-1.050;2023-04-29T03:56:11;1.00;;;1.00;;
18568;SDS011;14780;48.316;-1.050;2023-04-29T03:58:56;1.20;;;0.70;;
18568;SDS011;14780;48.316;-1.050;2023-04-29T04:01:41;0.60;;;0.60;;
18568;SDS011;14780;48.316;-1.050;2023-04-29T04:04:25;1.00;;;1.00;;
18568;SDS011;14780;48.316;-1.050;2023-04-29T04:07:10;0.70;;;0.70;;
18568;SDS011;14780;48.316;-1.050;2023-04-29T04:09:54;0.75;;;0.75;;
18568;SDS011;14780;48.316;-1.050;2023-04-29T04:12:39;0.80;;;0.80;;
18568;SDS011;14780;48.316;-1.050;2023-04-29T04:15:24;0.93;;;0.75;;
18568;SDS011;14780;48.316;-1.050;2023-04-29T04:18:09;0.57;;;0.57;;
18568;SDS011;14780;48.316;-1.050;2023-04-29T04:20:53;0.70;;;0.70;;
18568;SDS011;14780;48.316;-1.050;2023-04-29T04:23:38;0.60;;;0.60;;
18568;SDS011;14780;48.316;-1.050;2023-04-29T04:26:23;0.70;;;0.70;;
18568;SDS011;14780;48.316;-1.050;2023-04-29T04:29:08;1.40;;;1.15;;
18568;SDS011;14780;48.316;-1.050;2023-04-29T04:31:53;0.60;;;0.60;;
18568;SDS011;14780;48.316;-1.050;2023-04-29T04:34:38;0.95;;;0.90;;
18568;SDS011;14780;48.316;-1.050;2023-04-29T04:37:23;0.45;;;0.45;;
18568;SDS011;14780;48.316;-1.050;2023-04-29T04:40:07;0.82;;;0.80;;
18568;SDS011;14780;48.316;-1.050;2023-04-29T04:42:54;4.55;;;1.27;;
18568;SDS011;14780;48.316;-1.050;2023-04-29T04:45:39;0.82;;;0.82;;
18568;SDS011;14780;48.316;-1.050;2023-04-29T04:48:23;0.65;;;0.65;;
18568;SDS011;14780;48.316;-1.050;2023-04-29T04:51:09;0.52;;;0.52;;
18568;SDS011;14780;48.316;-1.050;2023-04-29T04:53:54;0.65;;;0.65;;
18568;SDS011;14780;48.316;-1.050;2023-04-29T04:56:39;3.75;;;0.70;;
18568;SDS011;14780;48.316;-1.050;2023-04-29T04:59:24;0.90;;;0.90;;
18568;SDS011;14780;48.316;-1.050;2023-04-29T05:02:08;0.70;;;0.70;;
18568;SDS011;14780;48.316;-1.050;2023-04-29T05:04:53;1.40;;;0.88;;
18568;SDS011;14780;48.316;-1.050;2023-04-29T05:07:39;0.60;;;0.60;;
18568;SDS011;14780;48.316;-1.050;2023-04-29T05:10:23;0.80;;;0.80;;
18568;SDS011;14780;48.316;-1.050;2023-04-29T05:13:09;0.90;;;0.90;;
18568;SDS011;14780;48.316;-1.050;2023-04-29T05:15:54;2.50;;;0.88;;
18568;SDS011;14780;48.316;-1.050;2023-04-29T05:18:38;1.38;;;0.88;;
18568;SDS011;14780;48.316;-1.050;2023-04-29T05:21:23;0.70;;;0.70;;
18568;SDS011;14780;48.316;-1.050;2023-04-29T05:24:08;0.77;;;0.77;;
18568;SDS011;14780;48.316;-1.050;2023-04-29T05:26:52;0.52;;;0.52;;
18568;SDS011;14780;48.316;-1.050;2023-04-29T05:29:37;1.08;;;0.80;;
18568;SDS011;14780;48.316;-1.050;2023-04-29T05:32:22;0.65;;;0.65;;
18568;SDS011;14780;48.316;-1.050;2023-04-29T05:35:06;1.05;;;0.95;;
18568;SDS011;14780;48.316;-1.050;2023-04-29T05:37:52;2.10;;;1.27;;
18568;SDS011;14780;48.316;-1.050;2023-04-29T05:40:37;2.50;;;1.20;;
18568;SDS011;14780;48.316;-1.050;2023-04-29T05:43:22;0.77;;;0.77;;
18568;SDS011;14780;48.316;-1.050;2023-04-29T05:46:08;3.22;;;0.98;;
18568;SDS011;14780;48.316;-1.050;2023-04-29T05:48:53;1.00;;;1.00;;
18568;SDS011;14780;48.316;-1.050;2023-04-29T05:51:38;0.88;;;0.88;;
18568;SDS011;14780;48.316;-1.050;2023-04-29T05:54:22;1.90;;;1.40;;
18568;SDS011;14780;48.316;-1.050;2023-04-29T05:57:07;1.80;;;1.45;;
18568;SDS011;14780;48.316;-1.050;2023-04-29T05:59:52;1.75;;;1.10;;
18568;SDS011;14780;48.316;-1.050;2023-04-29T06:02:38;0.70;;;0.70;;
18568;SDS011;14780;48.316;-1.050;2023-04-29T06:05:25;1.20;;;1.10;;
18568;SDS011;14780;48.316;-1.050;2023-04-29T06:08:10;1.08;;;1.02;;
18568;SDS011;14780;48.316;-1.050;2023-04-29T06:10:55;0.95;;;0.95;;
18568;SDS011;14780;48.316;-1.050;2023-04-29T06:13:39;0.65;;;0.65;;
18568;SDS011;14780;48.316;-1.050;2023-04-29T06:16:24;1.35;;;0.90;;
18568;SDS011;14780;48.316;-1.050;2023-04-29T06:19:08;0.80;;;0.80;;
18568;SDS011;14780;48.316;-1.050;2023-04-29T06:21:53;0.70;;;0.70;;
18568;SDS011;14780;48.316;-1.050;2023-04-29T06:24:37;0.80;;;0.80;;
18568;SDS011;14780;48.316;-1.050;2023-04-29T06:27:22;0.80;;;0.77;;
18568;SDS011;14780;48.316;-1.050;2023-04-29T06:30:08;0.88;;;0.88;;
18568;SDS011;14780;48.316;-1.050;2023-04-29T06:32:54;0.80;;;0.80;;
18568;SDS011;14780;48.316;-1.050;2023-04-29T06:35:38;0.80;;;0.80;;
18568;SDS011;14780;48.316;-1.050;2023-04-29T06:38:24;1.52;;;0.90;;
18568;SDS011;14780;48.316;-1.050;2023-04-29T06:41:09;0.82;;;0.82;;
18568;SDS011;14780;48.316;-1.050;2023-04-29T06:43:53;1.55;;;1.08;;
18568;SDS011;14780;48.316;-1.050;2023-04-29T06:46:38;1.48;;;1.00;;
18568;SDS011;14780;48.316;-1.050;2023-04-29T06:49:23;0.90;;;0.90;;
18568;SDS011;14780;48.316;-1.050;2023-04-29T06:52:08;2.50;;;1.00;;
18568;SDS011;14780;48.316;-1.050;2023-04-29T06:54:53;1.13;;;0.75;;
18568;SDS011;14780;48.316;-1.050;2023-04-29T06:57:37;1.02;;;0.93;;
18568;SDS011;14780;48.316;-1.050;2023-04-29T07:00:22;1.13;;;0.98;;
18568;SDS011;14780;48.316;-1.050;2023-04-29T07:03:06;1.90;;;1.02;;
18568;SDS011;14780;48.316;-1.050;2023-04-29T07:05:52;3.40;;;1.10;;
18568;SDS011;14780;48.316;-1.050;2023-04-29T07:08:37;1.05;;;1.02;;
18568;SDS011;14780;48.316;-1.050;2023-04-29T07:11:22;1.45;;;1.38;;
18568;SDS011;14780;48.316;-1.050;2023-04-29T07:14:10;1.88;;;0.85;;
18568;SDS011;14780;48.316;-1.050;2023-04-29T07:16:54;1.58;;;1.15;;
18568;SDS011;14780;48.316;-1.050;2023-04-29T07:19:39;1.05;;;1.00;;
18568;SDS011;14780;48.316;-1.050;2023-04-29T07:22:24;0.85;;;0.85;;
18568;SDS011;14780;48.316;-1.050;2023-04-29T07:25:08;1.30;;;1.20;;
18568;SDS011;14780;48.316;-1.050;2023-04-29T07:27:54;1.00;;;0.85;;
18568;SDS011;14780;48.316;-1.050;2023-04-29T07:30:39;1.77;;;1.63;;
18568;SDS011;14780;48.316;-1.050;2023-04-29T07:33:24;1.30;;;1.20;;
18568;SDS011;14780;48.316;-1.050;2023-04-29T07:36:09;1.33;;;1.05;;
18568;SDS011;14780;48.316;-1.050;2023-04-29T07:38:54;2.50;;;1.27;;
18568;SDS011;14780;48.316;-1.050;2023-04-29T07:41:39;1.25;;;1.15;;
18568;SDS011;14780;48.316;-1.050;2023-04-29T07:44:23;1.23;;;1.13;;
18568;SDS011;14780;48.316;-1.050;2023-04-29T07:47:08;1.52;;;0.90;;
18568;SDS011;14780;48.316;-1.050;2023-04-29T07:49:53;0.85;;;0.80;;
18568;SDS011;14780;48.316;-1.050;2023-04-29T07:52:38;1.15;;;1.08;;
18568;SDS011;14780;48.316;-1.050;2023-04-29T07:55:22;2.83;;;1.08;;
18568;SDS011;14780;48.316;-1.050;2023-04-29T07:58:09;1.30;;;1.20;;
18568;SDS011;14780;48.316;-1.050;2023-04-29T08:00:55;1.25;;;1.15;;
18568;SDS011;14780;48.316;-1.050;2023-04-29T08:03:39;1.00;;;1.00;;
18568;SDS011;14780;48.316;-1.050;2023-04-29T08:06:24;1.58;;;1.35;;
18568;SDS011;14780;48.316;-1.050;2023-04-29T08:09:08;3.92;;;1.23;;
18568;SDS011;14780;48.316;-1.050;2023-04-29T08:11:53;1.45;;;1.08;;
18568;SDS011;14780;48.316;-1.050;2023-04-29T08:14:38;1.35;;;1.25;;
18568;SDS011;14780;48.316;-1.050;2023-04-29T08:17:23;1.55;;;1.30;;
18568;SDS011;14780;48.316;-1.050;2023-04-29T08:20:08;1.83;;;1.35;;
18568;SDS011;14780;48.316;-1.050;2023-04-29T08:22:53;2.95;;;1.30;;
18568;SDS011;14780;48.316;-1.050;2023-04-29T08:25:40;2.28;;;1.40;;
18568;SDS011;14780;48.316;-1.050;2023-04-29T08:28:26;1.17;;;0.90;;
18568;SDS011;14780;48.316;-1.050;2023-04-29T08:31:17;1.73;;;1.42;;
18568;SDS011;14780;48.316;-1.050;2023-04-29T08:34:03;2.38;;;0.98;;
18568;SDS011;14780;48.316;-1.050;2023-04-29T08:36:48;1.92;;;1.55;;
18568;SDS011;14780;48.316;-1.050;2023-04-29T08:39:33;3.72;;;1.10;;
18568;SDS011;14780;48.316;-1.050;2023-04-29T08:42:18;1.65;;;1.20;;
18568;SDS011;14780;48.316;-1.050;2023-04-29T08:45:13;1.95;;;1.30;;
18568;SDS011;14780;48.316;-1.050;2023-04-29T08:48:02;1.48;;;1.38;;
18568;SDS011;14780;48.316;-1.050;2023-04-29T08:50:49;4.60;;;1.35;;
18568;SDS011;14780;48.316;-1.050;2023-04-29T08:53:34;2.13;;;1.60;;
18568;SDS011;14780;48.316;-1.050;2023-04-29T08:56:19;3.75;;;1.35;;
18568;SDS011;14780;48.316;-1.050;2023-04-29T08:59:05;3.85;;;1.58;;
18568;SDS011;14780;48.316;-1.050;2023-04-29T09:01:53;2.28;;;1.42;;
18568;SDS011;14780;48.316;-1.050;2023-04-29T09:04:53;1.50;;;1.40;;
18568;SDS011;14780;48.316;-1.050;2023-04-29T09:07:47;7.50;;;1.88;;
18568;SDS011;14780;48.316;-1.050;2023-04-29T09:10:40;5.05;;;1.95;;
18568;SDS011;14780;48.316;-1.050;2023-04-29T09:13:26;11.40;;;2.03;;
18568;SDS011;14780;48.316;-1.050;2023-04-29T09:16:13;3.65;;;2.13;;
18568;SDS011;14780;48.316;-1.050;2023-04-29T09:18:58;2.10;;;1.48;;
18568;SDS011;14780;48.316;-1.050;2023-04-29T09:21:44;2.80;;;1.63;;
18568;SDS011;14780;48.316;-1.050;2023-04-29T09:24:41;3.97;;;1.80;;
18568;SDS011;14780;48.316;-1.050;2023-04-29T09:27:27;5.75;;;1.90;;
18568;SDS011;14780;48.316;-1.050;2023-04-29T09:30:11;2.40;;;1.85;;
18568;SDS011;14780;48.316;-1.050;2023-04-29T09:33:06;3.97;;;1.73;;
18568;SDS011;14780;48.316;-1.050;2023-04-29T09:35:52;2.05;;;1.70;;
18568;SDS011;14780;48.316;-1.050;2023-04-29T09:38:37;2.30;;;1.70;;
18568;SDS011;14780;48.316;-1.050;2023-04-29T09:44:26;4.97;;;1.90;;
18568;SDS011;14780;48.316;-1.050;2023-04-29T09:47:28;3.30;;;1.80;;
18568;SDS011;14780;48.316;-1.050;2023-04-29T09:50:15;4.72;;;2.10;;
18568;SDS011;14780;48.316;-1.050;2023-04-29T09:53:02;2.95;;;1.85;;
18568;SDS011;14780;48.316;-1.050;2023-04-29T09:58:36;2.55;;;1.85;;
18568;SDS011;14780;48.316;-1.050;2023-04-29T10:01:21;2.80;;;1.75;;
18568;SDS011;14780;48.316;-1.050;2023-04-29T10:04:09;6.55;;;1.70;;
18568;SDS011;14780;48.316;-1.050;2023-04-29T10:06:56;2.15;;;1.77;;
18568;SDS011;14780;48.316;-1.050;2023-04-29T10:09:46;1.70;;;1.60;;
18568;SDS011;14780;48.316;-1.050;2023-04-29T10:12:31;4.30;;;1.70;;
18568;SDS011;14780;48.316;-1.050;2023-04-29T10:15:42;3.45;;;1.85;;
18568;SDS011;14780;48.316;-1.050;2023-04-29T10:18:35;2.00;;;1.80;;
18568;SDS011;14780;48.316;-1.050;2023-04-29T10:21:26;3.10;;;1.83;;
18568;SDS011;14780;48.316;-1.050;2023-04-29T10:24:15;4.85;;;2.47;;
18568;SDS011;14780;48.316;-1.050;2023-04-29T10:27:06;3.08;;;2.47;;
18568;SDS011;14780;48.316;-1.050;2023-04-29T10:32:42;2.85;;;2.33;;
18568;SDS011;14780;48.316;-1.050;2023-04-29T10:35:28;3.22;;;2.50;;
18568;SDS011;14780;48.316;-1.050;2023-04-29T10:38:20;4.90;;;2.78;;
18568;SDS011;14780;48.316;-1.050;2023-04-29T10:41:22;2.67;;;2.30;;
18568;SDS011;14780;48.316;-1.050;2023-04-29T10:44:14;6.72;;;2.53;;
18568;SDS011;14780;48.316;-1.050;2023-04-29T10:47:18;3.53;;;2.25;;
18568;SDS011;14780;48.316;-1.050;2023-04-29T10:50:03;4.18;;;2.42;;
18568;SDS011;14780;48.316;-1.050;2023-04-29T10:52:51;2.30;;;2.10;;
18568;SDS011;14780;48.316;-1.050;2023-04-29T10:55:40;3.95;;;2.40;;
18568;SDS011;14780;48.316;-1.050;2023-04-29T11:01:17;4.28;;;2.03;;
18568;SDS011;14780;48.316;-1.050;2023-04-29T11:04:22;2.30;;;1.83;;
18568;SDS011;14780;48.316;-1.050;2023-04-29T11:07:07;3.05;;;2.10;;
18568;SDS011;14780;48.316;-1.050;2023-04-29T11:09:52;2.45;;;1.90;;
18568;SDS011;14780;48.316;-1.050;2023-04-29T11:12:36;1.90;;;1.70;;
18568;SDS011;14780;48.316;-1.050;2023-04-29T11:15:21;2.40;;;1.92;;
18568;SDS011;14780;48.316;-1.050;2023-04-29T11:18:09;2.15;;;1.63;;
18568;SDS011;14780;48.316;-1.050;2023-04-29T11:23:50;2.97;;;2.05;;
18568;SDS011;14780;48.316;-1.050;2023-04-29T11:26:35;4.45;;;2.03;;
18568;SDS011;14780;48.316;-1.050;2023-04-29T11:29:20;3.05;;;2.10;;
18568;SDS011;14780;48.316;-1.050;2023-04-29T11:32:07;1.90;;;1.70;;
18568;SDS011;14780;48.316;-1.050;2023-04-29T11:34:52;3.65;;;2.28;;
18568;SDS011;14780;48.316;-1.050;2023-04-29T11:37:37;2.13;;;1.75;;
18568;SDS011;14780;48.316;-1.050;2023-04-29T11:40:23;2.22;;;1.90;;
18568;SDS011;14780;48.316;-1.050;2023-04-29T11:43:08;2.65;;;1.88;;
18568;SDS011;14780;48.316;-1.050;2023-04-29T11:45:59;2.65;;;1.92;;
18568;SDS011;14780;48.316;-1.050;2023-04-29T11:48:45;1.92;;;1.73;;
18568;SDS011;14780;48.316;-1.050;2023-04-29T11:51:31;2.70;;;1.88;;
18568;SDS011;14780;48.316;-1.050;2023-04-29T11:54:16;2.28;;;1.70;;
18568;SDS011;14780;48.316;-1.050;2023-04-29T11:57:01;5.50;;;1.85;;
18568;SDS011;14780;48.316;-1.050;2023-04-29T11:59:48;1.90;;;1.80;;
18568;SDS011;14780;48.316;-1.050;2023-04-29T12:02:33;15.40;;;2.55;;
18568;SDS011;14780;48.316;-1.050;2023-04-29T12:05:18;3.25;;;2.13;;
18568;SDS011;14780;48.316;-1.050;2023-04-29T12:08:05;3.80;;;2.20;;
18568;SDS011;14780;48.316;-1.050;2023-04-29T12:10:51;20.15;;;2.10;;
18568;SDS011;14780;48.316;-1.050;2023-04-29T12:13:37;3.22;;;2.15;;
18568;SDS011;14780;48.316;-1.050;2023-04-29T12:16:22;3.92;;;2.30;;
18568;SDS011;14780;48.316;-1.050;2023-04-29T12:19:08;4.22;;;2.13;;
18568;SDS011;14780;48.316;-1.050;2023-04-29T12:21:53;2.88;;;1.50;;
18568;SDS011;14780;48.316;-1.050;2023-04-29T12:24:42;2.13;;;1.90;;
18568;SDS011;14780;48.316;-1.050;2023-04-29T12:27:28;3.22;;;2.20;;
18568;SDS011;14780;48.316;-1.050;2023-04-29T12:30:13;3.92;;;2.17;;
18568;SDS011;14780;48.316;-1.050;2023-04-29T12:32:57;3.70;;;1.90;;
18568;SDS011;14780;48.316;-1.050;2023-04-29T12:35:42;3.00;;;1.90;;
18568;SDS011;14780;48.316;-1.050;2023-04-29T12:38:28;5.00;;;2.00;;
18568;SDS011;14780;48.316;-1.050;2023-04-29T12:41:14;2.38;;;1.90;;
18568;SDS011;14780;48.316;-1.050;2023-04-29T12:43:59;2.05;;;1.75;;
18568;SDS011;14780;48.316;-1.050;2023-04-29T12:46:44;3.00;;;1.75;;
18568;SDS011;14780;48.316;-1.050;2023-04-29T12:49:29;1.85;;;1.58;;
18568;SDS011;14780;48.316;-1.050;2023-04-29T12:52:13;2.90;;;1.77;;
18568;SDS011;14780;48.316;-1.050;2023-04-29T12:54:58;4.50;;;2.55;;
18568;SDS011;14780;48.316;-1.050;2023-04-29T12:57:43;6.55;;;2.63;;
18568;SDS011;14780;48.316;-1.050;2023-04-29T13:00:29;11.98;;;3.25;;
18568;SDS011;14780;48.316;-1.050;2023-04-29T13:03:14;7.82;;;3.40;;
18568;SDS011;14780;48.316;-1.050;2023-04-29T13:05:59;13.48;;;3.85;;
18568;SDS011;14780;48.316;-1.050;2023-04-29T13:08:45;11.38;;;3.38;;
18568;SDS011;14780;48.316;-1.050;2023-04-29T13:11:29;10.70;;;3.83;;
18568;SDS011;14780;48.316;-1.050;2023-04-29T13:14:14;10.35;;;2.72;;
18568;SDS011;14780;48.316;-1.050;2023-04-29T13:17:00;8.52;;;2.72;;
18568;SDS011;14780;48.316;-1.050;2023-04-29T13:19:46;9.57;;;2.90;;
18568;SDS011;14780;48.316;-1.050;2023-04-29T13:22:31;5.43;;;3.05;;
18568;SDS011;14780;48.316;-1.050;2023-04-29T13:25:16;9.02;;;3.22;;
18568;SDS011;14780;48.316;-1.050;2023-04-29T13:28:00;5.85;;;2.45;;
18568;SDS011;14780;48.316;-1.050;2023-04-29T13:30:45;4.85;;;2.53;;
18568;SDS011;14780;48.316;-1.050;2023-04-29T13:33:30;6.95;;;2.78;;
18568;SDS011;14780;48.316;-1.050;2023-04-29T13:36:15;7.55;;;2.90;;
18568;SDS011;14780;48.316;-1.050;2023-04-29T13:39:00;4.68;;;2.42;;
18568;SDS011;14780;48.316;-1.050;2023-04-29T13:41:44;8.93;;;2.90;;
18568;SDS011;14780;48.316;-1.050;2023-04-29T13:44:29;5.63;;;2.58;;
18568;SDS011;14780;48.316;-1.050;2023-04-29T13:47:14;5.63;;;2.28;;
18568;SDS011;14780;48.316;-1.050;2023-04-29T13:49:59;4.10;;;2.38;;
18568;SDS011;14780;48.316;-1.050;2023-04-29T13:52:44;2.83;;;2.05;;
18568;SDS011;14780;48.316;-1.050;2023-04-29T13:55:29;5.75;;;2.50;;
18568;SDS011;14780;48.316;-1.050;2023-04-29T13:58:17;4.55;;;2.40;;
18568;SDS011;14780;48.316;-1.050;2023-04-29T14:01:01;6.20;;;2.30;;
18568;SDS011;14780;48.316;-1.050;2023-04-29T14:03:46;3.08;;;2.00;;
18568;SDS011;14780;48.316;-1.050;2023-04-29T14:06:31;4.35;;;2.28;;
18568;SDS011;14780;48.316;-1.050;2023-04-29T14:09:17;7.07;;;2.15;;
18568;SDS011;14780;48.316;-1.050;2023-04-29T14:12:02;2.53;;;2.20;;
18568;SDS011;14780;48.316;-1.050;2023-04-29T14:14:47;2.25;;;1.60;;
18568;SDS011;14780;48.316;-1.050;2023-04-29T14:17:31;3.10;;;1.83;;
18568;SDS011;14780;48.316;-1.050;2023-04-29T14:20:16;4.93;;;2.15;;
18568;SDS011;14780;48.316;-1.050;2023-04-29T14:23:01;4.15;;;2.05;;
18568;SDS011;14780;48.316;-1.050;2023-04-29T14:25:46;2.55;;;1.80;;
18568;SDS011;14780;48.316;-1.050;2023-04-29T14:28:31;2.33;;;2.13;;
18568;SDS011;14780;48.316;-1.050;2023-04-29T14:31:15;3.17;;;2.45;;
18568;SDS011;14780;48.316;-1.050;2023-04-29T14:34:01;4.22;;;2.70;;
18568;SDS011;14780;48.316;-1.050;2023-04-29T14:36:45;5.25;;;2.63;;
18568;SDS011;14780;48.316;-1.050;2023-04-29T14:39:30;4.15;;;2.60;;
18568;SDS011;14780;48.316;-1.050;2023-04-29T14:42:15;3.80;;;2.60;;
18568;SDS011;14780;48.316;-1.050;2023-04-29T14:45:01;3.08;;;2.10;;
18568;SDS011;14780;48.316;-1.050;2023-04-29T14:47:46;2.63;;;2.08;;
18568;SDS011;14780;48.316;-1.050;2023-04-29T14:50:31;2.28;;;1.90;;
18568;SDS011;14780;48.316;-1.050;2023-04-29T14:53:15;4.03;;;2.10;;
18568;SDS011;14780;48.316;-1.050;2023-04-29T14:56:00;3.33;;;2.42;;
18568;SDS011;14780;48.316;-1.050;2023-04-29T14:58:46;3.30;;;2.05;;
18568;SDS011;14780;48.316;-1.050;2023-04-29T15:01:31;2.78;;;1.98;;
18568;SDS011;14780;48.316;-1.050;2023-04-29T15:04:17;3.13;;;1.95;;
18568;SDS011;14780;48.316;-1.050;2023-04-29T15:07:02;3.78;;;2.42;;
18568;SDS011;14780;48.316;-1.050;2023-04-29T15:09:47;2.83;;;2.10;;
18568;SDS011;14780;48.316;-1.050;2023-04-29T15:12:32;2.95;;;2.10;;
18568;SDS011;14780;48.316;-1.050;2023-04-29T15:15:17;3.30;;;2.38;;
18568;SDS011;14780;48.316;-1.050;2023-04-29T15:18:03;3.58;;;2.70;;
18568;SDS011;14780;48.316;-1.050;2023-04-29T15:20:51;2.78;;;2.13;;
18568;SDS011;14780;48.316;-1.050;2023-04-29T15:23:36;3.50;;;1.85;;
18568;SDS011;14780;48.316;-1.050;2023-04-29T15:26:21;2.97;;;2.13;;
18568;SDS011;14780;48.316;-1.050;2023-04-29T15:29:06;2.45;;;2.13;;
18568;SDS011;14780;48.316;-1.050;2023-04-29T15:31:52;2.70;;;2.15;;
18568;SDS011;14780;48.316;-1.050;2023-04-29T15:34:36;4.00;;;2.35;;
18568;SDS011;14780;48.316;-1.050;2023-04-29T15:37:21;2.28;;;1.95;;
18568;SDS011;14780;48.316;-1.050;2023-04-29T15:40:06;3.05;;;2.13;;
18568;SDS011;14780;48.316;-1.050;2023-04-29T15:42:52;4.22;;;2.47;;
18568;SDS011;14780;48.316;-1.050;2023-04-29T15:45:37;3.20;;;2.10;;
18568;SDS011;14780;48.316;-1.050;2023-04-29T15:48:21;4.00;;;2.60;;
18568;SDS011;14780;48.316;-1.050;2023-04-29T15:51:07;3.15;;;2.63;;
18568;SDS011;14780;48.316;-1.050;2023-04-29T15:53:52;2.78;;;2.10;;
18568;SDS011;14780;48.316;-1.050;2023-04-29T15:56:37;2.63;;;2.20;;
18568;SDS011;14780;48.316;-1.050;2023-04-29T15:59:22;4.28;;;2.60;;
18568;SDS011;14780;48.316;-1.050;2023-04-29T16:02:07;4.45;;;2.42;;
18568;SDS011;14780;48.316;-1.050;2023-04-29T16:04:54;6.30;;;2.53;;
18568;SDS011;14780;48.316;-1.050;2023-04-29T16:07:38;3.08;;;2.20;;
18568;SDS011;14780;48.316;-1.050;2023-04-29T16:10:24;3.42;;;2.22;;
18568;SDS011;14780;48.316;-1.050;2023-04-29T16:13:08;2.95;;;2.13;;
18568;SDS011;14780;48.316;-1.050;2023-04-29T16:15:53;2.60;;;2.13;;
18568;SDS011;14780;48.316;-1.050;2023-04-29T16:18:39;2.05;;;1.85;;
18568;SDS011;14780;48.316;-1.050;2023-04-29T16:21:24;3.92;;;1.70;;
18568;SDS011;14780;48.316;-1.050;2023-04-29T16:24:13;2.20;;;2.00;;
18568;SDS011;14780;48.316;-1.050;2023-04-29T16:26:58;3.70;;;2.10;;
18568;SDS011;14780;48.316;-1.050;2023-04-29T16:29:44;3.88;;;2.00;;
18568;SDS011;14780;48.316;-1.050;2023-04-29T16:32:28;2.28;;;2.08;;
18568;SDS011;14780;48.316;-1.050;2023-04-29T16:35:14;4.28;;;2.33;;
18568;SDS011;14780;48.316;-1.050;2023-04-29T16:37:59;3.20;;;2.00;;
18568;SDS011;14780;48.316;-1.050;2023-04-29T16:40:44;3.28;;;2.17;;
18568;SDS011;14780;48.316;-1.050;2023-04-29T16:43:29;3.85;;;2.28;;
18568;SDS011;14780;48.316;-1.050;2023-04-29T16:46:14;1.98;;;1.80;;
18568;SDS011;14780;48.316;-1.050;2023-04-29T16:48:58;2.20;;;2.00;;